sensor_id;sensor_type;location;lat;lon;timestamp;temperature;humidity
16970;DHT22;8601;48.718;8.992;2023-03-01T00:02:15;-1.30;96.00
16970;DHT22;8601;48.718;8.992;2023-03-01T00:04:42;-1.30;96.30
16970;DHT22;8601;48.718;8.992;2023-03-01T00:07:09;-1.40;96.10
16970;DHT22;8601;48.718;8.992;2023-03-01T00:09:39;-1.40;96.20
16970;DHT22;8601;48.718;8.992;2023-03-01T00:12:06;-1.40;96.60
16970;DHT22;8601;48.718;8.992;2023-03-01T00:14:35;-1.40;96.50
16970;DHT22;8601;48.718;8.992;2023-03-01T00:17:03;-1.40;96.50
16970;DHT22;8601;48.718;8.992;2023-03-01T00:19:40;-1.40;96.60
16970;DHT22;8601;48.718;8.992;2023-03-01T00:22:07;-1.40;96.80
16970;DHT22;8601;48.718;8.992;2023-03-01T00:24:34;-1.40;96.80
16970;DHT22;8601;48.718;8.992;2023-03-01T00:27:04;-1.40;96.70
16970;DHT22;8601;48.718;8.992;2023-03-01T00:29:31;-1.50;96.70
16970;DHT22;8601;48.718;8.992;2023-03-01T00:31:58;-1.40;96.80
16970;DHT22;8601;48.718;8.992;2023-03-01T00:34:25;-1.40;96.70
16970;DHT22;8601;48.718;8.992;2023-03-01T00:36:52;-1.40;96.30
16970;DHT22;8601;48.718;8.992;2023-03-01T00:39:19;-1.50;96.30
16970;DHT22;8601;48.718;8.992;2023-03-01T00:41:46;-1.50;96.40
16970;DHT22;8601;48.718;8.992;2023-03-01T00:44:14;-1.50;96.80
16970;DHT22;8601;48.718;8.992;2023-03-01T00:46:41;-1.50;96.60
16970;DHT22;8601;48.718;8.992;2023-03-01T00:49:08;-1.60;96.70
16970;DHT22;8601;48.718;8.992;2023-03-01T00:51:35;-1.60;96.70
16970;DHT22;8601;48.718;8.992;2023-03-01T00:54:02;-1.60;96.70
16970;DHT22;8601;48.718;8.992;2023-03-01T00:56:30;-1.60;96.90
16970;DHT22;8601;48.718;8.992;2023-03-01T00:59:04;-1.60;96.90
16970;DHT22;8601;48.718;8.992;2023-03-01T01:01:33;-1.60;96.90
16970;DHT22;8601;48.718;8.992;2023-03-01T01:04:02;-1.70;96.90
16970;DHT22;8601;48.718;8.992;2023-03-01T01:06:36;-1.70;97.00
16970;DHT22;8601;48.718;8.992;2023-03-01T01:09:05;-1.70;97.20
16970;DHT22;8601;48.718;8.992;2023-03-01T01:11:33;-1.70;97.10
16970;DHT22;8601;48.718;8.992;2023-03-01T01:14:01;-1.80;97.00
16970;DHT22;8601;48.718;8.992;2023-03-01T01:16:29;-1.70;97.30
16970;DHT22;8601;48.718;8.992;2023-03-01T01:18:58;-1.80;97.20
16970;DHT22;8601;48.718;8.992;2023-03-01T01:21:25;-1.70;97.70
16970;DHT22;8601;48.718;8.992;2023-03-01T01:23:53;-1.70;97.20
16970;DHT22;8601;48.718;8.992;2023-03-01T01:26:22;-1.80;97.10
16970;DHT22;8601;48.718;8.992;2023-03-01T01:28:49;-1.80;97.10
16970;DHT22;8601;48.718;8.992;2023-03-01T01:31:17;-1.80;97.40
16970;DHT22;8601;48.718;8.992;2023-03-01T01:33:45;-1.80;97.50
16970;DHT22;8601;48.718;8.992;2023-03-01T01:36:14;-1.80;97.50
16970;DHT22;8601;48.718;8.992;2023-03-01T01:38:40;-1.90;97.20
16970;DHT22;8601;48.718;8.992;2023-03-01T01:41:08;-1.90;97.20
16970;DHT22;8601;48.718;8.992;2023-03-01T01:43:39;-1.90;97.10
16970;DHT22;8601;48.718;8.992;2023-03-01T01:46:14;-2.00;97.30
16970;DHT22;8601;48.718;8.992;2023-03-01T01:48:46;-2.00;97.50
16970;DHT22;8601;48.718;8.992;2023-03-01T01:51:19;-2.00;97.80
16970;DHT22;8601;48.718;8.992;2023-03-01T01:53:58;-2.00;97.50
16970;DHT22;8601;48.718;8.992;2023-03-01T01:56:27;-2.00;97.60
16970;DHT22;8601;48.718;8.992;2023-03-01T01:58:55;-2.00;97.80
16970;DHT22;8601;48.718;8.992;2023-03-01T02:01:23;-1.90;97.90
16970;DHT22;8601;48.718;8.992;2023-03-01T02:03:50;-1.90;97.90
16970;DHT22;8601;48.718;8.992;2023-03-01T02:06:21;-1.90;97.70
16970;DHT22;8601;48.718;8.992;2023-03-01T02:08:50;-2.00;97.70
16970;DHT22;8601;48.718;8.992;2023-03-01T02:11:19;-2.00;98.00
16970;DHT22;8601;48.718;8.992;2023-03-01T02:13:47;-2.00;98.10
16970;DHT22;8601;48.718;8.992;2023-03-01T02:16:23;-1.90;98.30
16970;DHT22;8601;48.718;8.992;2023-03-01T02:18:50;-2.00;98.20
16970;DHT22;8601;48.718;8.992;2023-03-01T02:21:30;-2.00;98.50
16970;DHT22;8601;48.718;8.992;2023-03-01T02:24:07;-1.90;98.40
16970;DHT22;8601;48.718;8.992;2023-03-01T02:26:42;-1.90;98.40
16970;DHT22;8601;48.718;8.992;2023-03-01T02:29:13;-1.80;99.20
16970;DHT22;8601;48.718;8.992;2023-03-01T02:31:39;-1.70;99.00
16970;DHT22;8601;48.718;8.992;2023-03-01T02:34:12;-1.70;99.30
16970;DHT22;8601;48.718;8.992;2023-03-01T02:36:42;-1.60;99.70
16970;DHT22;8601;48.718;8.992;2023-03-01T02:39:13;-1.60;99.70
16970;DHT22;8601;48.718;8.992;2023-03-01T02:41:45;-1.50;99.80
16970;DHT22;8601;48.718;8.992;2023-03-01T02:44:14;-1.40;99.90
16970;DHT22;8601;48.718;8.992;2023-03-01T02:46:43;-1.40;99.40
16970;DHT22;8601;48.718;8.992;2023-03-01T02:49:21;-1.50;99.10
16970;DHT22;8601;48.718;8.992;2023-03-01T02:52:07;-1.30;99.20
16970;DHT22;8601;48.718;8.992;2023-03-01T02:54:40;-1.40;98.90
16970;DHT22;8601;48.718;8.992;2023-03-01T02:57:09;-1.30;99.30
16970;DHT22;8601;48.718;8.992;2023-03-01T02:59:39;-1.30;99.40
16970;DHT22;8601;48.718;8.992;2023-03-01T03:02:24;-1.20;99.30
16970;DHT22;8601;48.718;8.992;2023-03-01T03:05:03;-1.30;99.20
16970;DHT22;8601;48.718;8.992;2023-03-01T03:07:32;-1.30;99.10
16970;DHT22;8601;48.718;8.992;2023-03-01T03:09:59;-1.20;99.10
16970;DHT22;8601;48.718;8.992;2023-03-01T03:12:34;-1.20;99.20
16970;DHT22;8601;48.718;8.992;2023-03-01T03:15:03;-1.20;99.50
16970;DHT22;8601;48.718;8.992;2023-03-01T03:17:34;-1.10;99.10
16970;DHT22;8601;48.718;8.992;2023-03-01T03:20:01;-1.10;98.80
16970;DHT22;8601;48.718;8.992;2023-03-01T03:22:29;-1.10;98.70
16970;DHT22;8601;48.718;8.992;2023-03-01T03:24:56;-1.00;98.90
16970;DHT22;8601;48.718;8.992;2023-03-01T03:27:23;-1.00;98.40
16970;DHT22;8601;48.718;8.992;2023-03-01T03:29:49;-0.90;98.50
16970;DHT22;8601;48.718;8.992;2023-03-01T03:32:18;-1.00;98.10
16970;DHT22;8601;48.718;8.992;2023-03-01T03:34:44;-0.90;98.40
16970;DHT22;8601;48.718;8.992;2023-03-01T03:37:11;-0.90;98.40
16970;DHT22;8601;48.718;8.992;2023-03-01T03:39:52;-0.90;98.10
16970;DHT22;8601;48.718;8.992;2023-03-01T03:42:20;-0.90;97.90
16970;DHT22;8601;48.718;8.992;2023-03-01T03:44:47;-0.90;98.10
16970;DHT22;8601;48.718;8.992;2023-03-01T03:47:14;-0.90;98.10
16970;DHT22;8601;48.718;8.992;2023-03-01T03:49:42;-0.90;98.30
16970;DHT22;8601;48.718;8.992;2023-03-01T03:52:12;-0.90;97.90
16970;DHT22;8601;48.718;8.992;2023-03-01T03:54:39;-0.90;97.80
16970;DHT22;8601;48.718;8.992;2023-03-01T03:57:08;-0.80;98.00
16970;DHT22;8601;48.718;8.992;2023-03-01T03:59:35;-0.80;97.70
16970;DHT22;8601;48.718;8.992;2023-03-01T04:02:02;-0.80;97.30
16970;DHT22;8601;48.718;8.992;2023-03-01T04:04:29;-0.80;97.10
16970;DHT22;8601;48.718;8.992;2023-03-01T04:06:57;-0.80;97.30
16970;DHT22;8601;48.718;8.992;2023-03-01T04:09:24;-0.80;97.10
16970;DHT22;8601;48.718;8.992;2023-03-01T04:11:51;-0.70;97.40
16970;DHT22;8601;48.718;8.992;2023-03-01T04:14:18;-0.70;97.50
16970;DHT22;8601;48.718;8.992;2023-03-01T04:16:45;-0.70;97.30
16970;DHT22;8601;48.718;8.992;2023-03-01T04:19:13;-0.70;97.20
16970;DHT22;8601;48.718;8.992;2023-03-01T04:21:40;-0.70;96.60
16970;DHT22;8601;48.718;8.992;2023-03-01T04:24:09;-0.70;96.70
16970;DHT22;8601;48.718;8.992;2023-03-01T04:26:36;-0.70;96.80
16970;DHT22;8601;48.718;8.992;2023-03-01T04:29:03;-0.70;96.80
16970;DHT22;8601;48.718;8.992;2023-03-01T04:31:30;-0.70;97.10
16970;DHT22;8601;48.718;8.992;2023-03-01T04:33:57;-0.70;97.30
16970;DHT22;8601;48.718;8.992;2023-03-01T04:36:26;-0.70;97.10
16970;DHT22;8601;48.718;8.992;2023-03-01T04:38:54;-0.60;97.10
16970;DHT22;8601;48.718;8.992;2023-03-01T04:41:24;-0.60;97.20
16970;DHT22;8601;48.718;8.992;2023-03-01T04:43:51;-0.60;97.10
16970;DHT22;8601;48.718;8.992;2023-03-01T04:46:19;-0.60;96.90
16970;DHT22;8601;48.718;8.992;2023-03-01T04:48:46;-0.70;96.70
16970;DHT22;8601;48.718;8.992;2023-03-01T04:51:13;-0.60;96.70
16970;DHT22;8601;48.718;8.992;2023-03-01T04:53:42;-0.70;96.60
16970;DHT22;8601;48.718;8.992;2023-03-01T04:56:10;-0.60;96.80
16970;DHT22;8601;48.718;8.992;2023-03-01T04:58:40;-0.50;96.80
16970;DHT22;8601;48.718;8.992;2023-03-01T05:01:14;-0.50;96.90
16970;DHT22;8601;48.718;8.992;2023-03-01T05:03:50;-0.50;96.80
16970;DHT22;8601;48.718;8.992;2023-03-01T05:06:19;-0.50;96.60
16970;DHT22;8601;48.718;8.992;2023-03-01T05:08:53;-0.50;97.10
16970;DHT22;8601;48.718;8.992;2023-03-01T05:11:19;-0.50;97.00
16970;DHT22;8601;48.718;8.992;2023-03-01T05:13:48;-0.50;96.80
16970;DHT22;8601;48.718;8.992;2023-03-01T05:16:20;-0.50;96.50
16970;DHT22;8601;48.718;8.992;2023-03-01T05:18:47;-0.50;97.00
16970;DHT22;8601;48.718;8.992;2023-03-01T05:21:16;-0.60;96.80
16970;DHT22;8601;48.718;8.992;2023-03-01T05:23:44;-0.60;96.80
16970;DHT22;8601;48.718;8.992;2023-03-01T05:26:12;-0.60;97.00
16970;DHT22;8601;48.718;8.992;2023-03-01T05:28:40;-0.60;97.00
16970;DHT22;8601;48.718;8.992;2023-03-01T05:31:08;-0.60;97.20
16970;DHT22;8601;48.718;8.992;2023-03-01T05:33:37;-0.60;97.40
16970;DHT22;8601;48.718;8.992;2023-03-01T05:36:07;-0.60;97.50
16970;DHT22;8601;48.718;8.992;2023-03-01T05:38:35;-0.50;97.60
16970;DHT22;8601;48.718;8.992;2023-03-01T05:41:02;-0.60;97.60
16970;DHT22;8601;48.718;8.992;2023-03-01T05:43:31;-0.60;97.60
16970;DHT22;8601;48.718;8.992;2023-03-01T05:45:59;-0.60;97.80
16970;DHT22;8601;48.718;8.992;2023-03-01T05:48:28;-0.60;97.80
16970;DHT22;8601;48.718;8.992;2023-03-01T05:50:55;-0.60;97.70
16970;DHT22;8601;48.718;8.992;2023-03-01T05:53:21;-0.50;97.80
16970;DHT22;8601;48.718;8.992;2023-03-01T05:55:49;-0.50;98.00
16970;DHT22;8601;48.718;8.992;2023-03-01T05:58:18;-0.50;98.10
16970;DHT22;8601;48.718;8.992;2023-03-01T06:00:46;-0.50;97.90
16970;DHT22;8601;48.718;8.992;2023-03-01T06:03:15;-0.50;98.00
16970;DHT22;8601;48.718;8.992;2023-03-01T06:05:44;-0.50;98.00
16970;DHT22;8601;48.718;8.992;2023-03-01T06:08:12;-0.50;97.80
16970;DHT22;8601;48.718;8.992;2023-03-01T06:10:41;-0.50;98.20
16970;DHT22;8601;48.718;8.992;2023-03-01T06:13:09;-0.50;98.20
16970;DHT22;8601;48.718;8.992;2023-03-01T06:15:36;-0.50;98.00
16970;DHT22;8601;48.718;8.992;2023-03-01T06:18:03;-0.40;98.00
16970;DHT22;8601;48.718;8.992;2023-03-01T06:20:30;-0.40;98.00
16970;DHT22;8601;48.718;8.992;2023-03-01T06:22:58;-0.40;97.90
16970;DHT22;8601;48.718;8.992;2023-03-01T06:25:27;-0.40;97.80
16970;DHT22;8601;48.718;8.992;2023-03-01T06:27:55;-0.40;97.70
16970;DHT22;8601;48.718;8.992;2023-03-01T06:30:24;-0.50;97.50
16970;DHT22;8601;48.718;8.992;2023-03-01T06:32:51;-0.50;97.70
16970;DHT22;8601;48.718;8.992;2023-03-01T06:35:20;-0.50;97.80
16970;DHT22;8601;48.718;8.992;2023-03-01T06:37:47;-0.50;98.00
16970;DHT22;8601;48.718;8.992;2023-03-01T06:40:15;-0.50;98.20
16970;DHT22;8601;48.718;8.992;2023-03-01T06:42:48;-0.40;98.10
16970;DHT22;8601;48.718;8.992;2023-03-01T06:45:15;-0.50;97.70
16970;DHT22;8601;48.718;8.992;2023-03-01T06:47:43;-0.50;97.80
16970;DHT22;8601;48.718;8.992;2023-03-01T06:50:11;-0.50;98.10
16970;DHT22;8601;48.718;8.992;2023-03-01T06:52:38;-0.50;97.90
16970;DHT22;8601;48.718;8.992;2023-03-01T06:55:08;-0.50;98.00
16970;DHT22;8601;48.718;8.992;2023-03-01T06:57:36;-0.50;98.00
16970;DHT22;8601;48.718;8.992;2023-03-01T07:00:03;-0.50;97.90
16970;DHT22;8601;48.718;8.992;2023-03-01T07:02:31;-0.40;98.00
16970;DHT22;8601;48.718;8.992;2023-03-01T07:04:58;-0.50;98.20
16970;DHT22;8601;48.718;8.992;2023-03-01T07:07:24;-0.50;97.90
16970;DHT22;8601;48.718;8.992;2023-03-01T07:09:51;-0.50;97.80
16970;DHT22;8601;48.718;8.992;2023-03-01T07:12:18;-0.50;97.60
16970;DHT22;8601;48.718;8.992;2023-03-01T07:14:46;-0.40;97.80
16970;DHT22;8601;48.718;8.992;2023-03-01T07:17:13;-0.40;97.80
16970;DHT22;8601;48.718;8.992;2023-03-01T07:19:40;-0.30;97.80
16970;DHT22;8601;48.718;8.992;2023-03-01T07:22:07;-0.40;97.70
16970;DHT22;8601;48.718;8.992;2023-03-01T07:24:35;-0.40;97.60
16970;DHT22;8601;48.718;8.992;2023-03-01T07:27:02;-0.40;97.60
16970;DHT22;8601;48.718;8.992;2023-03-01T07:29:29;-0.40;97.70
16970;DHT22;8601;48.718;8.992;2023-03-01T07:31:58;-0.40;97.90
16970;DHT22;8601;48.718;8.992;2023-03-01T07:34:25;2.50;99.90
16970;DHT22;8601;48.718;8.992;2023-03-01T07:36:51;3.70;99.90
16970;DHT22;8601;48.718;8.992;2023-03-01T07:39:19;3.30;99.90
16970;DHT22;8601;48.718;8.992;2023-03-01T07:41:48;2.30;95.40
16970;DHT22;8601;48.718;8.992;2023-03-01T07:44:15;1.50;94.90
16970;DHT22;8601;48.718;8.992;2023-03-01T07:46:42;0.90;95.40
16970;DHT22;8601;48.718;8.992;2023-03-01T07:49:11;0.60;96.00
16970;DHT22;8601;48.718;8.992;2023-03-01T07:51:38;0.30;96.60
16970;DHT22;8601;48.718;8.992;2023-03-01T07:54:05;0.10;96.80
16970;DHT22;8601;48.718;8.992;2023-03-01T07:56:32;0.00;97.80
16970;DHT22;8601;48.718;8.992;2023-03-01T07:59:00;0.00;97.70
16970;DHT22;8601;48.718;8.992;2023-03-01T08:01:27;-0.10;98.20
16970;DHT22;8601;48.718;8.992;2023-03-01T08:03:53;-0.10;98.50
16970;DHT22;8601;48.718;8.992;2023-03-01T08:06:22;0.00;98.60
16970;DHT22;8601;48.718;8.992;2023-03-01T08:08:49;-0.10;98.20
16970;DHT22;8601;48.718;8.992;2023-03-01T08:11:20;-0.10;98.50
16970;DHT22;8601;48.718;8.992;2023-03-01T08:13:48;-0.20;98.20
16970;DHT22;8601;48.718;8.992;2023-03-01T08:16:15;-0.10;98.60
16970;DHT22;8601;48.718;8.992;2023-03-01T08:18:44;-0.10;98.80
16970;DHT22;8601;48.718;8.992;2023-03-01T08:21:12;0.00;98.80
16970;DHT22;8601;48.718;8.992;2023-03-01T08:23:43;0.10;99.00
16970;DHT22;8601;48.718;8.992;2023-03-01T08:26:11;0.10;98.70
16970;DHT22;8601;48.718;8.992;2023-03-01T08:28:39;0.10;98.80
16970;DHT22;8601;48.718;8.992;2023-03-01T08:31:20;0.20;98.60
16970;DHT22;8601;48.718;8.992;2023-03-01T08:33:48;0.30;98.70
16970;DHT22;8601;48.718;8.992;2023-03-01T08:36:17;0.40;98.70
16970;DHT22;8601;48.718;8.992;2023-03-01T08:38:47;0.50;98.00
16970;DHT22;8601;48.718;8.992;2023-03-01T08:41:14;0.60;97.80
16970;DHT22;8601;48.718;8.992;2023-03-01T08:43:43;0.70;97.50
16970;DHT22;8601;48.718;8.992;2023-03-01T08:46:11;0.70;97.40
16970;DHT22;8601;48.718;8.992;2023-03-01T08:48:38;0.90;97.30
16970;DHT22;8601;48.718;8.992;2023-03-01T08:51:09;1.00;96.90
16970;DHT22;8601;48.718;8.992;2023-03-01T08:53:38;1.10;96.00
16970;DHT22;8601;48.718;8.992;2023-03-01T08:56:07;1.30;96.40
16970;DHT22;8601;48.718;8.992;2023-03-01T08:58:34;1.30;95.20
16970;DHT22;8601;48.718;8.992;2023-03-01T09:01:07;1.30;95.20
16970;DHT22;8601;48.718;8.992;2023-03-01T09:03:34;1.40;94.70
16970;DHT22;8601;48.718;8.992;2023-03-01T09:06:01;1.50;94.40
16970;DHT22;8601;48.718;8.992;2023-03-01T09:08:29;1.50;93.90
16970;DHT22;8601;48.718;8.992;2023-03-01T09:10:56;1.60;94.00
16970;DHT22;8601;48.718;8.992;2023-03-01T09:13:27;1.50;93.40
16970;DHT22;8601;48.718;8.992;2023-03-01T09:15:56;1.70;93.60
16970;DHT22;8601;48.718;8.992;2023-03-01T09:18:23;2.00;93.40
16970;DHT22;8601;48.718;8.992;2023-03-01T09:20:51;2.20;93.00
16970;DHT22;8601;48.718;8.992;2023-03-01T09:23:20;2.50;92.50
16970;DHT22;8601;48.718;8.992;2023-03-01T09:25:47;2.60;91.60
16970;DHT22;8601;48.718;8.992;2023-03-01T09:28:14;2.90;91.10
16970;DHT22;8601;48.718;8.992;2023-03-01T09:30:42;3.10;91.10
16970;DHT22;8601;48.718;8.992;2023-03-01T09:33:09;3.20;90.10
16970;DHT22;8601;48.718;8.992;2023-03-01T09:35:40;3.40;89.40
16970;DHT22;8601;48.718;8.992;2023-03-01T09:38:11;3.70;88.50
16970;DHT22;8601;48.718;8.992;2023-03-01T09:40:43;3.90;86.70
16970;DHT22;8601;48.718;8.992;2023-03-01T09:43:18;4.00;85.80
16970;DHT22;8601;48.718;8.992;2023-03-01T09:45:50;4.20;85.70
16970;DHT22;8601;48.718;8.992;2023-03-01T09:48:22;4.40;85.00
16970;DHT22;8601;48.718;8.992;2023-03-01T09:50:52;4.10;84.40
16970;DHT22;8601;48.718;8.992;2023-03-01T09:53:22;4.40;84.40
16970;DHT22;8601;48.718;8.992;2023-03-01T09:55:53;4.60;83.10
16970;DHT22;8601;48.718;8.992;2023-03-01T09:58:38;4.70;82.30
16970;DHT22;8601;48.718;8.992;2023-03-01T10:04:26;5.40;80.00
16970;DHT22;8601;48.718;8.992;2023-03-01T10:09:50;5.10;81.40
16970;DHT22;8601;48.718;8.992;2023-03-01T10:12:19;5.40;80.00
16970;DHT22;8601;48.718;8.992;2023-03-01T10:14:53;5.60;79.50
16970;DHT22;8601;48.718;8.992;2023-03-01T10:17:30;5.70;79.50
16970;DHT22;8601;48.718;8.992;2023-03-01T10:20:20;5.60;78.60
16970;DHT22;8601;48.718;8.992;2023-03-01T10:22:48;6.00;77.40
16970;DHT22;8601;48.718;8.992;2023-03-01T10:25:24;6.00;76.80
16970;DHT22;8601;48.718;8.992;2023-03-01T10:28:01;5.90;76.00
16970;DHT22;8601;48.718;8.992;2023-03-01T10:30:34;6.00;76.50
16970;DHT22;8601;48.718;8.992;2023-03-01T10:33:16;6.10;76.80
16970;DHT22;8601;48.718;8.992;2023-03-01T10:35:44;6.30;75.40
16970;DHT22;8601;48.718;8.992;2023-03-01T10:38:14;6.60;74.50
16970;DHT22;8601;48.718;8.992;2023-03-01T10:40:52;6.60;73.50
16970;DHT22;8601;48.718;8.992;2023-03-01T10:43:20;6.60;75.10
16970;DHT22;8601;48.718;8.992;2023-03-01T10:45:49;6.80;74.00
16970;DHT22;8601;48.718;8.992;2023-03-01T10:48:19;6.90;74.80
16970;DHT22;8601;48.718;8.992;2023-03-01T10:50:50;6.80;73.20
16970;DHT22;8601;48.718;8.992;2023-03-01T10:53:23;6.70;73.70
16970;DHT22;8601;48.718;8.992;2023-03-01T10:56:01;6.70;72.20
16970;DHT22;8601;48.718;8.992;2023-03-01T10:58:30;6.80;74.00
16970;DHT22;8601;48.718;8.992;2023-03-01T11:00:59;7.10;73.40
16970;DHT22;8601;48.718;8.992;2023-03-01T11:03:29;6.70;72.00
16970;DHT22;8601;48.718;8.992;2023-03-01T11:06:00;7.00;71.50
16970;DHT22;8601;48.718;8.992;2023-03-01T11:08:41;6.90;72.10
16970;DHT22;8601;48.718;8.992;2023-03-01T11:11:26;7.10;70.50
16970;DHT22;8601;48.718;8.992;2023-03-01T11:13:58;7.00;70.50
16970;DHT22;8601;48.718;8.992;2023-03-01T11:16:29;6.80;71.00
16970;DHT22;8601;48.718;8.992;2023-03-01T11:18:59;6.70;72.00
16970;DHT22;8601;48.718;8.992;2023-03-01T11:21:30;6.70;70.20
16970;DHT22;8601;48.718;8.992;2023-03-01T11:24:00;7.40;90.10
16970;DHT22;8601;48.718;8.992;2023-03-01T11:26:28;7.60;69.00
16970;DHT22;8601;48.718;8.992;2023-03-01T11:29:04;7.30;69.20
16970;DHT22;8601;48.718;8.992;2023-03-01T11:31:32;7.40;69.20
16970;DHT22;8601;48.718;8.992;2023-03-01T11:34:06;7.80;69.90
16970;DHT22;8601;48.718;8.992;2023-03-01T11:36:40;7.50;67.60
16970;DHT22;8601;48.718;8.992;2023-03-01T11:39:17;7.20;68.50
16970;DHT22;8601;48.718;8.992;2023-03-01T11:41:49;7.40;68.90
16970;DHT22;8601;48.718;8.992;2023-03-01T11:44:21;8.80;84.40
16970;DHT22;8601;48.718;8.992;2023-03-01T11:47:07;8.70;67.70
16970;DHT22;8601;48.718;8.992;2023-03-01T11:50:06;8.20;67.60
16970;DHT22;8601;48.718;8.992;2023-03-01T11:52:48;8.10;66.20
16970;DHT22;8601;48.718;8.992;2023-03-01T11:55:29;7.80;68.70
16970;DHT22;8601;48.718;8.992;2023-03-01T11:58:08;7.90;66.90
16970;DHT22;8601;48.718;8.992;2023-03-01T12:01:06;7.60;67.60
16970;DHT22;8601;48.718;8.992;2023-03-01T12:03:51;7.60;67.70
16970;DHT22;8601;48.718;8.992;2023-03-01T12:06:32;7.40;66.70
16970;DHT22;8601;48.718;8.992;2023-03-01T12:09:13;7.50;68.20
16970;DHT22;8601;48.718;8.992;2023-03-01T12:18:34;7.60;67.10
16970;DHT22;8601;48.718;8.992;2023-03-01T12:21:14;7.80;66.20
16970;DHT22;8601;48.718;8.992;2023-03-01T12:24:07;7.70;65.50
16970;DHT22;8601;48.718;8.992;2023-03-01T12:26:50;7.60;65.80
16970;DHT22;8601;48.718;8.992;2023-03-01T12:29:25;7.50;68.10
16970;DHT22;8601;48.718;8.992;2023-03-01T12:32:15;7.60;66.50
16970;DHT22;8601;48.718;8.992;2023-03-01T12:38:06;7.90;66.20
16970;DHT22;8601;48.718;8.992;2023-03-01T12:40:57;7.70;66.70
16970;DHT22;8601;48.718;8.992;2023-03-01T12:43:38;7.70;66.40
16970;DHT22;8601;48.718;8.992;2023-03-01T12:46:15;7.80;66.90
16970;DHT22;8601;48.718;8.992;2023-03-01T12:48:56;8.00;65.60
16970;DHT22;8601;48.718;8.992;2023-03-01T12:51:30;8.00;66.80
16970;DHT22;8601;48.718;8.992;2023-03-01T12:53:59;8.20;65.60
16970;DHT22;8601;48.718;8.992;2023-03-01T12:56:32;8.20;64.90
16970;DHT22;8601;48.718;8.992;2023-03-01T12:59:07;8.30;64.80
16970;DHT22;8601;48.718;8.992;2023-03-01T13:01:42;8.40;64.20
16970;DHT22;8601;48.718;8.992;2023-03-01T13:04:24;8.60;64.60
16970;DHT22;8601;48.718;8.992;2023-03-01T13:07:10;8.40;64.20
16970;DHT22;8601;48.718;8.992;2023-03-01T13:09:43;8.40;64.80
16970;DHT22;8601;48.718;8.992;2023-03-01T13:12:51;8.30;65.20
16970;DHT22;8601;48.718;8.992;2023-03-01T13:15:27;8.50;64.00
16970;DHT22;8601;48.718;8.992;2023-03-01T13:17:56;8.50;63.20
16970;DHT22;8601;48.718;8.992;2023-03-01T13:20:25;8.40;63.40
16970;DHT22;8601;48.718;8.992;2023-03-01T13:23:06;8.60;64.70
16970;DHT22;8601;48.718;8.992;2023-03-01T13:25:34;9.10;64.50
16970;DHT22;8601;48.718;8.992;2023-03-01T13:31:03;8.60;63.10
16970;DHT22;8601;48.718;8.992;2023-03-01T13:33:53;8.40;63.50
16970;DHT22;8601;48.718;8.992;2023-03-01T13:36:51;8.20;63.00
16970;DHT22;8601;48.718;8.992;2023-03-01T13:39:29;8.10;64.60
16970;DHT22;8601;48.718;8.992;2023-03-01T13:41:58;8.10;65.10
16970;DHT22;8601;48.718;8.992;2023-03-01T13:44:29;8.20;65.50
16970;DHT22;8601;48.718;8.992;2023-03-01T13:47:00;8.30;64.80
16970;DHT22;8601;48.718;8.992;2023-03-01T13:49:35;8.40;64.50
16970;DHT22;8601;48.718;8.992;2023-03-01T13:52:34;8.50;63.50
16970;DHT22;8601;48.718;8.992;2023-03-01T13:55:04;8.40;63.80
16970;DHT22;8601;48.718;8.992;2023-03-01T13:57:34;8.40;63.10
16970;DHT22;8601;48.718;8.992;2023-03-01T14:00:06;8.50;63.60
16970;DHT22;8601;48.718;8.992;2023-03-01T14:02:34;8.50;64.30
16970;DHT22;8601;48.718;8.992;2023-03-01T14:05:02;8.60;65.30
16970;DHT22;8601;48.718;8.992;2023-03-01T14:07:29;8.50;64.50
16970;DHT22;8601;48.718;8.992;2023-03-01T14:09:58;8.60;63.40
16970;DHT22;8601;48.718;8.992;2023-03-01T14:12:39;8.50;64.00
16970;DHT22;8601;48.718;8.992;2023-03-01T14:15:18;8.30;63.60
16970;DHT22;8601;48.718;8.992;2023-03-01T14:18:06;8.20;63.70
16970;DHT22;8601;48.718;8.992;2023-03-01T14:20:39;7.90;64.20
16970;DHT22;8601;48.718;8.992;2023-03-01T14:23:11;7.80;64.60
16970;DHT22;8601;48.718;8.992;2023-03-01T14:25:46;8.00;65.10
16970;DHT22;8601;48.718;8.992;2023-03-01T14:28:25;8.00;65.70
16970;DHT22;8601;48.718;8.992;2023-03-01T14:30:56;7.80;65.30
16970;DHT22;8601;48.718;8.992;2023-03-01T14:33:28;7.90;65.80
16970;DHT22;8601;48.718;8.992;2023-03-01T14:35:58;8.00;65.50
16970;DHT22;8601;48.718;8.992;2023-03-01T14:38:31;8.10;65.40
16970;DHT22;8601;48.718;8.992;2023-03-01T14:41:01;8.10;65.40
16970;DHT22;8601;48.718;8.992;2023-03-01T14:43:29;8.00;64.80
16970;DHT22;8601;48.718;8.992;2023-03-01T14:45:57;7.90;65.50
16970;DHT22;8601;48.718;8.992;2023-03-01T14:48:27;7.90;66.00
16970;DHT22;8601;48.718;8.992;2023-03-01T14:50:55;7.90;65.70
16970;DHT22;8601;48.718;8.992;2023-03-01T14:53:24;7.80;65.10
16970;DHT22;8601;48.718;8.992;2023-03-01T14:55:53;7.70;65.30
16970;DHT22;8601;48.718;8.992;2023-03-01T14:58:23;7.70;67.00
16970;DHT22;8601;48.718;8.992;2023-03-01T15:00:52;7.70;65.80
16970;DHT22;8601;48.718;8.992;2023-03-01T15:03:27;7.60;65.70
16970;DHT22;8601;48.718;8.992;2023-03-01T15:06:00;7.60;67.00
16970;DHT22;8601;48.718;8.992;2023-03-01T15:08:28;7.60;66.80
16970;DHT22;8601;48.718;8.992;2023-03-01T15:11:03;7.60;67.40
16970;DHT22;8601;48.718;8.992;2023-03-01T15:13:32;7.50;67.50
16970;DHT22;8601;48.718;8.992;2023-03-01T15:16:05;7.40;67.40
16970;DHT22;8601;48.718;8.992;2023-03-01T15:18:35;7.50;68.10
16970;DHT22;8601;48.718;8.992;2023-03-01T15:21:08;7.50;67.40
16970;DHT22;8601;48.718;8.992;2023-03-01T15:23:38;7.40;67.90
16970;DHT22;8601;48.718;8.992;2023-03-01T15:26:22;7.30;67.50
16970;DHT22;8601;48.718;8.992;2023-03-01T15:28:50;7.30;68.30
16970;DHT22;8601;48.718;8.992;2023-03-01T15:31:20;7.10;68.50
16970;DHT22;8601;48.718;8.992;2023-03-01T15:33:49;7.10;69.00
16970;DHT22;8601;48.718;8.992;2023-03-01T15:36:46;7.10;68.90
16970;DHT22;8601;48.718;8.992;2023-03-01T15:39:31;7.00;69.30
16970;DHT22;8601;48.718;8.992;2023-03-01T15:42:03;7.00;69.20
16970;DHT22;8601;48.718;8.992;2023-03-01T15:44:32;7.00;69.10
16970;DHT22;8601;48.718;8.992;2023-03-01T15:47:02;7.00;69.70
16970;DHT22;8601;48.718;8.992;2023-03-01T15:49:37;6.80;69.40
16970;DHT22;8601;48.718;8.992;2023-03-01T15:52:08;6.70;70.10
16970;DHT22;8601;48.718;8.992;2023-03-01T15:54:39;6.70;70.00
16970;DHT22;8601;48.718;8.992;2023-03-01T15:57:10;6.70;70.80
16970;DHT22;8601;48.718;8.992;2023-03-01T15:59:38;6.60;70.40
16970;DHT22;8601;48.718;8.992;2023-03-01T16:02:09;6.60;70.80
16970;DHT22;8601;48.718;8.992;2023-03-01T16:04:37;6.50;69.90
16970;DHT22;8601;48.718;8.992;2023-03-01T16:07:05;6.50;70.20
16970;DHT22;8601;48.718;8.992;2023-03-01T16:09:33;6.50;71.40
16970;DHT22;8601;48.718;8.992;2023-03-01T16:11:59;6.40;71.70
16970;DHT22;8601;48.718;8.992;2023-03-01T16:14:27;6.40;70.90
16970;DHT22;8601;48.718;8.992;2023-03-01T16:17:06;6.30;71.40
16970;DHT22;8601;48.718;8.992;2023-03-01T16:19:37;6.20;70.50
16970;DHT22;8601;48.718;8.992;2023-03-01T16:22:10;6.20;70.80
16970;DHT22;8601;48.718;8.992;2023-03-01T16:24:37;6.20;71.70
16970;DHT22;8601;48.718;8.992;2023-03-01T16:27:08;6.20;72.50
16970;DHT22;8601;48.718;8.992;2023-03-01T16:29:37;6.10;72.60
16970;DHT22;8601;48.718;8.992;2023-03-01T16:32:05;6.00;71.80
16970;DHT22;8601;48.718;8.992;2023-03-01T16:34:32;6.00;70.90
16970;DHT22;8601;48.718;8.992;2023-03-01T16:37:01;5.90;72.40
16970;DHT22;8601;48.718;8.992;2023-03-01T16:39:30;5.80;72.30